Time;durP1;ratioP1;P1;durP2;ratioP2;P2;SDS_P1;SDS_P2;PMS_P1;PMS_P2;Temp;Humidity;BMP_temperature;BMP_pressure;BME280_temperature;BME280_humidity;BME280_pressure;Samples;Min_cycle;Max_cycle;Signal;HPM_P1;HPM_P2
2023/10/11 00:00:33;;;;;;;;;;;11.90;99.90;;;;;;5131155;28;20209;-74
2023/10/11 00:03:04;;;;;;;;;;;11.90;99.90;;;;;;5131915;28;19979;-73
2023/10/11 00:05:36;;;;;;;;;;;11.90;99.90;;;;;;5133135;27;19994;-74
2023/10/11 00:08:03;;;;;;;;;;;11.80;99.90;;;;;;5140323;27;20283;-73
2023/10/11 00:10:30;;;;;;;;;;;11.80;99.90;;;;;;5141452;27;19931;-73
2023/10/11 00:12:59;;;;;;;;;;;11.80;99.90;;;;;;5136516;27;19920;-77
2023/10/11 00:15:29;;;;;;;;;;;11.80;99.90;;;;;;5135320;27;19994;-74
2023/10/11 00:17:56;;;;;;;;;;;11.70;99.90;;;;;;5135872;27;19923;-74
2023/10/11 00:20:31;;;;;;;;;;;11.70;99.90;;;;;;5137570;27;19947;-74
2023/10/11 00:22:59;;;;;;;;;;;11.70;99.90;;;;;;5132001;27;19931;-74
2023/10/11 00:25:31;;;;;;;;;;;11.60;99.90;;;;;;5135850;27;19925;-76
2023/10/11 00:27:58;;;;;;;;;;;11.60;99.90;;;;;;5136450;27;20100;-74
2023/10/11 00:30:25;;;;;;;;;;;11.60;99.90;;;;;;5131849;27;19920;-74
2023/10/11 00:33:03;;;;;;;;;;;11.50;99.90;;;;;;5129565;27;19923;-74
2023/10/11 00:35:41;;;;;;;;;;;11.60;99.90;;;;;;5134258;27;19969;-75
2023/10/11 00:38:11;;;;;;;;;;;11.50;99.90;;;;;;5131971;27;19932;-76
2023/10/11 00:40:38;;;;;;;;;;;11.50;99.90;;;;;;5134382;27;20355;-74
2023/10/11 00:43:06;;;;;;;;;;;11.50;99.90;;;;;;5127030;28;19935;-74
2023/10/11 00:45:36;;;;;;;;;;;11.50;99.90;;;;;;5133689;27;19979;-74
2023/10/11 00:48:06;;;;;;;;;;;11.50;99.90;;;;;;5136235;27;19919;-74
2023/10/11 00:50:50;;;;;;;;;;;11.50;99.90;;;;;;5134590;27;19919;-76
2023/10/11 00:56:18;;;;;;;;;;;11.40;99.90;;;;;;5133077;27;19930;-75
2023/10/11 00:58:45;;;;;;;;;;;11.40;99.90;;;;;;5138244;27;19950;-74
2023/10/11 01:01:26;;;;;;;;;;;11.30;99.90;;;;;;5140485;27;19965;-76
2023/10/11 01:04:04;;;;;;;;;;;11.30;99.90;;;;;;5133798;27;19927;-76
2023/10/11 01:06:34;;;;;;;;;;;11.30;99.90;;;;;;5133736;27;19926;-73
2023/10/11 01:09:00;;;;;;;;;;;11.30;99.90;;;;;;5138404;27;19919;-74
2023/10/11 01:11:28;;;;;;;;;;;11.20;99.90;;;;;;5128815;27;19954;-74
2023/10/11 01:13:54;;;;;;;;;;;11.20;99.90;;;;;;5134373;27;19920;-73
2023/10/11 01:16:25;;;;;;;;;;;11.20;99.90;;;;;;5133208;27;19926;-74
2023/10/11 01:18:52;;;;;;;;;;;11.20;99.90;;;;;;5131955;27;19962;-73
2023/10/11 01:21:59;;;;;;;;;;;11.10;99.90;;;;;;5140619;27;19954;-75
2023/10/11 01:24:29;;;;;;;;;;;11.10;99.90;;;;;;5127012;27;19926;-75
2023/10/11 01:26:56;;;;;;;;;;;11.10;99.90;;;;;;5123351;28;20225;-74
2023/10/11 01:29:23;;;;;;;;;;;11.00;99.90;;;;;;5126667;28;19920;-74
2023/10/11 01:31:50;;;;;;;;;;;11.00;99.90;;;;;;5129954;27;19919;-73
2023/10/11 01:37:26;;;;;;;;;;;11.00;99.90;;;;;;5119386;27;19936;-74
2023/10/11 01:39:52;;;;;;;;;;;10.90;99.90;;;;;;5108667;28;19991;-74
2023/10/11 01:42:29;;;;;;;;;;;10.90;99.90;;;;;;5109093;28;20268;-74
2023/10/11 01:44:55;;;;;;;;;;;10.90;99.90;;;;;;5104095;28;19924;-74
2023/10/11 01:47:22;;;;;;;;;;;10.90;99.90;;;;;;5114993;28;20245;-74
2023/10/11 01:49:52;;;;;;;;;;;10.90;99.90;;;;;;5111044;28;19952;-74
2023/10/11 01:52:19;;;;;;;;;;;10.90;99.90;;;;;;5102841;28;20055;-73
2023/10/11 01:54:47;;;;;;;;;;;10.90;99.90;;;;;;5105597;28;20277;-73
2023/10/11 01:57:14;;;;;;;;;;;10.90;99.90;;;;;;5100811;28;19924;-73
2023/10/11 01:59:41;;;;;;;;;;;10.90;99.90;;;;;;5102522;28;20126;-73
2023/10/11 02:02:10;;;;;;;;;;;10.90;99.90;;;;;;5109424;28;19928;-73
2023/10/11 02:04:40;;;;;;;;;;;10.90;99.90;;;;;;5107988;28;19928;-74
2023/10/11 02:07:07;;;;;;;;;;;10.90;99.90;;;;;;5108378;28;19956;-73
2023/10/11 02:09:33;;;;;;;;;;;10.90;99.90;;;;;;5108039;28;19924;-73
2023/10/11 02:12:01;;;;;;;;;;;10.80;99.90;;;;;;5109351;28;19920;-73
2023/10/11 02:14:29;;;;;;;;;;;10.80;99.90;;;;;;5106442;28;20241;-73
2023/10/11 02:16:55;;;;;;;;;;;10.80;99.90;;;;;;5109812;28;19985;-73
2023/10/11 02:19:23;;;;;;;;;;;10.80;99.90;;;;;;5106860;28;19955;-74
2023/10/11 02:21:53;;;;;;;;;;;10.80;99.90;;;;;;5116407;28;19920;-73
2023/10/11 02:24:20;;;;;;;;;;;10.80;99.90;;;;;;5104513;28;19927;-74
2023/10/11 02:26:49;;;;;;;;;;;10.80;99.90;;;;;;5102392;28;19928;-73
2023/10/11 02:29:21;;;;;;;;;;;10.70;99.90;;;;;;5113470;28;19991;-73
2023/10/11 02:31:50;;;;;;;;;;;10.70;99.90;;;;;;5108938;28;19941;-73
2023/10/11 02:34:16;;;;;;;;;;;10.70;99.90;;;;;;5102333;28;20011;-73
2023/10/11 02:36:44;;;;;;;;;;;10.70;99.90;;;;;;5120965;28;19991;-73
2023/10/11 02:39:17;;;;;;;;;;;10.70;99.90;;;;;;5130140;28;19920;-73
2023/10/11 02:41:47;;;;;;;;;;;10.60;99.90;;;;;;5121910;28;19920;-73
2023/10/11 02:44:14;;;;;;;;;;;10.60;99.90;;;;;;5132948;28;20135;-73
2023/10/11 02:46:43;;;;;;;;;;;10.60;99.90;;;;;;5129550;28;20213;-73
2023/10/11 02:49:18;;;;;;;;;;;10.60;99.90;;;;;;5118537;28;19920;-73
2023/10/11 02:51:52;;;;;;;;;;;10.60;99.90;;;;;;5116870;28;19920;-73
2023/10/11 02:54:19;;;;;;;;;;;10.60;99.90;;;;;;5107619;28;19920;-73
2023/10/11 02:56:47;;;;;;;;;;;10.60;99.90;;;;;;5115356;28;19987;-74
2023/10/11 02:59:19;;;;;;;;;;;10.60;99.90;;;;;;5113136;28;20201;-73
2023/10/11 03:01:59;;;;;;;;;;;10.50;99.90;;;;;;5115938;28;19926;-73
2023/10/11 03:04:27;;;;;;;;;;;10.60;99.90;;;;;;5108631;28;19920;-73
2023/10/11 03:06:54;;;;;;;;;;;10.60;99.90;;;;;;5113440;28;19920;-73
2023/10/11 03:09:26;;;;;;;;;;;10.50;99.90;;;;;;5119712;28;19990;-73
2023/10/11 03:11:56;;;;;;;;;;;10.50;99.90;;;;;;5112991;28;19927;-73
2023/10/11 03:14:23;;;;;;;;;;;10.50;99.90;;;;;;5119193;28;19928;-73
2023/10/11 03:16:57;;;;;;;;;;;10.50;99.90;;;;;;5109567;28;19956;-73
2023/10/11 03:19:24;;;;;;;;;;;10.50;99.90;;;;;;5106425;28;19920;-73
2023/10/11 03:21:53;;;;;;;;;;;10.50;99.90;;;;;;5112948;28;19919;-73
2023/10/11 03:24:20;;;;;;;;;;;10.50;99.90;;;;;;5102987;28;19927;-73
2023/10/11 03:26:48;;;;;;;;;;;10.50;99.90;;;;;;5108306;28;20008;-73
2023/10/11 03:29:18;;;;;;;;;;;10.50;99.90;;;;;;5112304;28;20351;-73
2023/10/11 03:31:45;;;;;;;;;;;10.50;99.90;;;;;;5103362;28;19987;-73
2023/10/11 03:34:14;;;;;;;;;;;10.50;99.90;;;;;;5106793;28;19931;-73
2023/10/11 03:36:49;;;;;;;;;;;10.50;99.90;;;;;;5109873;28;19992;-73
2023/10/11 03:39:39;;;;;;;;;;;10.40;99.90;;;;;;5114660;28;19971;-74
2023/10/11 03:42:07;;;;;;;;;;;10.40;99.90;;;;;;5106340;28;20160;-74
2023/10/11 03:44:36;;;;;;;;;;;10.30;99.90;;;;;;5106946;28;19928;-74
2023/10/11 03:47:06;;;;;;;;;;;10.30;99.90;;;;;;5107525;28;19927;-73
2023/10/11 03:49:47;;;;;;;;;;;10.30;99.90;;;;;;5114211;28;20109;-74
2023/10/11 03:52:19;;;;;;;;;;;10.30;99.90;;;;;;5115535;28;19942;-74
2023/10/11 03:54:46;;;;;;;;;;;10.30;99.90;;;;;;5112731;28;19920;-74
2023/10/11 03:57:16;;;;;;;;;;;10.40;99.90;;;;;;5112631;28;19963;-74
2023/10/11 03:59:48;;;;;;;;;;;10.40;99.90;;;;;;5111075;28;19924;-74
2023/10/11 04:02:17;;;;;;;;;;;10.40;99.90;;;;;;5112479;28;20273;-74
2023/10/11 04:04:48;;;;;;;;;;;10.40;99.90;;;;;;5111033;28;19927;-74
2023/10/11 04:07:16;;;;;;;;;;;10.40;99.90;;;;;;5106763;28;20106;-74
2023/10/11 04:09:44;;;;;;;;;;;10.40;99.90;;;;;;5113295;28;19951;-74
2023/10/11 04:12:12;;;;;;;;;;;10.40;99.90;;;;;;5114348;28;20200;-74
2023/10/11 04:14:44;;;;;;;;;;;10.30;99.90;;;;;;5112995;28;19928;-74
2023/10/11 04:17:24;;;;;;;;;;;10.30;99.90;;;;;;5113354;28;19943;-74
2023/10/11 04:19:53;;;;;;;;;;;10.30;99.90;;;;;;5114238;28;19920;-74
2023/10/11 04:22:23;;;;;;;;;;;10.30;99.90;;;;;;5115515;28;19963;-74
2023/10/11 04:24:53;;;;;;;;;;;10.30;99.90;;;;;;5105859;28;20037;-74
2023/10/11 04:30:17;;;;;;;;;;;10.30;99.90;;;;;;5105611;28;19961;-73
2023/10/11 04:32:46;;;;;;;;;;;10.30;99.90;;;;;;5112790;28;20098;-74
2023/10/11 04:35:21;;;;;;;;;;;10.30;99.90;;;;;;5114898;28;19987;-75
2023/10/11 04:37:54;;;;;;;;;;;10.30;99.90;;;;;;5113806;28;19920;-74
2023/10/11 04:40:34;;;;;;;;;;;10.30;99.90;;;;;;5109752;28;19920;-73
2023/10/11 04:43:05;;;;;;;;;;;10.30;99.90;;;;;;5104458;28;19924;-73
2023/10/11 04:45:43;;;;;;;;;;;10.30;99.90;;;;;;5107182;28;19960;-73
2023/10/11 04:48:14;;;;;;;;;;;10.30;99.90;;;;;;5109933;28;19924;-73
2023/10/11 04:50:47;;;;;;;;;;;10.30;99.90;;;;;;5110309;28;19928;-74
2023/10/11 04:53:21;;;;;;;;;;;10.20;99.90;;;;;;5116649;28;19947;-74
2023/10/11 04:56:51;;;;;;;;;;;10.20;99.90;;;;;;5112281;28;20202;-75
2023/10/11 04:58:54;;;;;;;;;;;10.20;99.90;;;;;;5109106;28;19927;-73
2023/10/11 05:01:22;;;;;;;;;;;10.20;99.90;;;;;;5111836;28;19938;-73
2023/10/11 05:03:58;;;;;;;;;;;10.20;99.90;;;;;;5111297;28;19927;-73
2023/10/11 05:06:31;;;;;;;;;;;10.30;99.90;;;;;;5105040;28;19919;-73
2023/10/11 05:09:06;;;;;;;;;;;10.20;99.90;;;;;;5105453;28;19923;-74
2023/10/11 05:11:43;;;;;;;;;;;10.30;99.90;;;;;;5107262;28;19926;-73
2023/10/11 05:14:37;;;;;;;;;;;10.30;99.90;;;;;;5108925;28;19935;-75
2023/10/11 05:17:31;;;;;;;;;;;10.30;99.90;;;;;;5110180;28;19920;-73
2023/10/11 05:20:20;;;;;;;;;;;10.30;99.90;;;;;;5109258;28;19920;-74
2023/10/11 05:23:02;;;;;;;;;;;10.30;99.90;;;;;;5113245;28;19928;-73
2023/10/11 05:25:52;;;;;;;;;;;10.30;99.90;;;;;;5105169;28;20209;-74
2023/10/11 05:28:27;;;;;;;;;;;10.30;99.90;;;;;;5114876;28;20229;-74
2023/10/11 05:33:59;;;;;;;;;;;10.30;99.90;;;;;;5117090;28;19938;-75
2023/10/11 05:36:40;;;;;;;;;;;10.30;99.90;;;;;;5106207;28;19924;-77
2023/10/11 05:53:15;;;;;;;;;;;10.10;99.90;;;;;;5114645;28;19961;-74
2023/10/11 05:55:43;;;;;;;;;;;10.10;99.90;;;;;;5117008;28;19928;-74
2023/10/11 05:58:13;;;;;;;;;;;10.10;99.90;;;;;;5111749;28;19970;-74
2023/10/11 06:00:39;;;;;;;;;;;10.10;99.90;;;;;;5115089;28;19920;-75
2023/10/11 06:03:06;;;;;;;;;;;10.10;99.90;;;;;;5110422;28;20121;-74
2023/10/11 06:05:39;;;;;;;;;;;10.10;99.90;;;;;;5106873;28;19965;-74
2023/10/11 06:08:07;;;;;;;;;;;10.10;99.90;;;;;;5114585;28;19927;-75
2023/10/11 06:10:41;;;;;;;;;;;10.10;99.90;;;;;;5116870;28;19924;-74
2023/10/11 06:13:13;;;;;;;;;;;10.10;99.90;;;;;;5103369;28;19938;-74
2023/10/11 06:15:43;;;;;;;;;;;10.10;99.90;;;;;;5110533;28;19927;-73
2023/10/11 06:18:35;;;;;;;;;;;10.10;99.90;;;;;;5112958;28;19963;-74
2023/10/11 06:21:05;;;;;;;;;;;10.10;99.90;;;;;;5102738;28;19919;-74
2023/10/11 06:23:32;;;;;;;;;;;10.10;99.90;;;;;;5111900;28;19920;-75
2023/10/11 06:25:59;;;;;;;;;;;10.20;99.90;;;;;;5114452;28;19982;-75
2023/10/11 06:28:31;;;;;;;;;;;10.20;99.90;;;;;;5117957;28;19927;-75
2023/10/11 06:31:00;;;;;;;;;;;10.20;99.90;;;;;;5118622;28;19974;-75
2023/10/11 06:33:27;;;;;;;;;;;10.20;99.90;;;;;;5114384;28;19942;-74
2023/10/11 06:35:53;;;;;;;;;;;10.20;99.90;;;;;;5111399;28;20129;-74
2023/10/11 06:38:21;;;;;;;;;;;10.20;99.90;;;;;;5115961;28;19991;-74
2023/10/11 06:40:53;;;;;;;;;;;10.20;99.90;;;;;;5117032;28;19923;-77
2023/10/11 06:43:20;;;;;;;;;;;10.20;99.90;;;;;;5111354;28;20290;-74
2023/10/11 06:45:49;;;;;;;;;;;10.30;99.90;;;;;;5114018;28;19991;-74
2023/10/11 06:48:16;;;;;;;;;;;10.30;99.90;;;;;;5114133;28;19976;-74
2023/10/11 06:50:43;;;;;;;;;;;10.30;99.90;;;;;;5115549;28;19955;-74
2023/10/11 06:53:10;;;;;;;;;;;10.30;99.90;;;;;;5114376;28;20002;-74
2023/10/11 06:55:39;;;;;;;;;;;10.30;99.90;;;;;;5113058;28;19962;-74
2023/10/11 06:58:09;;;;;;;;;;;10.30;99.90;;;;;;5117661;28;19920;-74
2023/10/11 07:00:38;;;;;;;;;;;10.40;99.90;;;;;;5112247;28;20252;-74
2023/10/11 07:03:09;;;;;;;;;;;10.40;99.90;;;;;;5115814;28;19919;-74
2023/10/11 07:05:40;;;;;;;;;;;10.50;99.90;;;;;;5111309;28;19927;-75
2023/10/11 07:08:08;;;;;;;;;;;10.50;99.90;;;;;;5116726;28;19928;-74
2023/10/11 07:10:35;;;;;;;;;;;10.60;99.90;;;;;;5115789;28;19919;-74
2023/10/11 07:13:05;;;;;;;;;;;10.60;99.90;;;;;;5114816;28;19950;-74
2023/10/11 07:15:40;;;;;;;;;;;10.70;99.90;;;;;;5117634;28;19976;-74
2023/10/11 07:18:10;;;;;;;;;;;10.80;99.90;;;;;;5115240;28;19928;-74
2023/10/11 07:20:58;;;;;;;;;;;10.90;99.90;;;;;;5117351;28;19919;-74
2023/10/11 07:23:34;;;;;;;;;;;11.00;99.90;;;;;;5116212;28;19920;-74
2023/10/11 07:26:22;;;;;;;;;;;11.20;99.90;;;;;;5114311;28;20121;-73
2023/10/11 07:28:50;;;;;;;;;;;11.30;99.90;;;;;;5115278;28;19973;-74
2023/10/11 07:31:17;;;;;;;;;;;11.40;99.90;;;;;;5111836;28;19923;-74
2023/10/11 07:33:49;;;;;;;;;;;11.60;99.90;;;;;;5108308;28;19920;-72
2023/10/11 07:36:18;;;;;;;;;;;11.70;99.90;;;;;;5115761;28;19996;-74
2023/10/11 07:38:54;;;;;;;;;;;11.80;99.90;;;;;;5115823;28;19958;-73
2023/10/11 07:41:22;;;;;;;;;;;12.00;99.90;;;;;;5115006;28;19977;-72
2023/10/11 07:43:48;;;;;;;;;;;12.20;99.90;;;;;;5115679;28;19924;-73
2023/10/11 07:46:17;;;;;;;;;;;12.40;99.90;;;;;;5115385;28;20237;-73
2023/10/11 07:48:43;;;;;;;;;;;12.60;99.90;;;;;;5116268;28;19966;-73
2023/10/11 07:51:11;;;;;;;;;;;12.80;99.90;;;;;;5113119;28;20244;-74
2023/10/11 07:53:40;;;;;;;;;;;12.90;99.90;;;;;;5106968;28;19958;-74
2023/10/11 07:56:06;;;;;;;;;;;13.20;99.90;;;;;;5117190;28;19947;-74
2023/10/11 07:58:33;;;;;;;;;;;13.30;99.90;;;;;;5117353;28;19927;-74
2023/10/11 08:01:03;;;;;;;;;;;13.50;99.90;;;;;;5115857;28;19927;-74
2023/10/11 08:03:45;;;;;;;;;;;13.60;99.90;;;;;;5113665;28;19920;-76
2023/10/11 08:06:23;;;;;;;;;;;13.70;99.90;;;;;;5116480;28;20249;-76
2023/10/11 08:14:43;;;;;;;;;;;14.20;99.90;;;;;;5053453;28;20219;-72
2023/10/11 08:17:12;;;;;;;;;;;14.50;99.90;;;;;;5103931;28;19920;-74
2023/10/11 08:19:41;;;;;;;;;;;14.60;99.90;;;;;;5112398;28;19920;-73
2023/10/11 08:22:10;;;;;;;;;;;14.80;99.90;;;;;;5112010;28;19919;-74
2023/10/11 08:24:46;;;;;;;;;;;14.90;99.90;;;;;;5111446;28;19920;-74
2023/10/11 08:27:32;;;;;;;;;;;15.10;99.90;;;;;;5112686;28;19993;-74
2023/10/11 08:30:08;;;;;;;;;;;15.30;99.90;;;;;;5110834;28;19950;-74
2023/10/11 08:32:37;;;;;;;;;;;15.50;99.90;;;;;;5111068;28;19979;-72
2023/10/11 08:35:09;;;;;;;;;;;15.70;99.90;;;;;;5113070;28;19996;-76
2023/10/11 08:37:37;;;;;;;;;;;15.80;99.90;;;;;;5112667;28;19955;-72
2023/10/11 08:40:19;;;;;;;;;;;15.90;99.90;;;;;;5115067;28;19927;-73
2023/10/11 08:42:48;;;;;;;;;;;16.20;99.90;;;;;;5113543;28;19983;-73
2023/10/11 08:45:20;;;;;;;;;;;16.40;99.90;;;;;;5109354;28;19935;-72
2023/10/11 08:47:50;;;;;;;;;;;16.60;99.90;;;;;;5110603;28;19958;-75
2023/10/11 08:50:18;;;;;;;;;;;16.80;99.90;;;;;;5110856;28;19955;-72
2023/10/11 08:52:56;;;;;;;;;;;16.90;99.90;;;;;;5114637;28;19920;-73
2023/10/11 08:55:24;;;;;;;;;;;17.00;99.90;;;;;;5106632;28;19965;-71
2023/10/11 09:00:52;;;;;;;;;;;17.40;99.90;;;;;;5112828;28;19920;-75
2023/10/11 09:03:23;;;;;;;;;;;17.50;99.90;;;;;;5111099;28;19962;-74
2023/10/11 09:09:00;;;;;;;;;;;18.30;99.90;;;;;;5063724;28;20224;-74
2023/10/11 09:14:43;;;;;;;;;;;18.80;99.90;;;;;;5093188;28;19957;-75
2023/10/11 09:17:18;;;;;;;;;;;19.10;99.90;;;;;;5109779;28;19961;-73
2023/10/11 09:19:50;;;;;;;;;;;19.30;99.90;;;;;;5113043;28;19935;-75
2023/10/11 09:22:19;;;;;;;;;;;19.50;99.90;;;;;;5107363;28;20277;-75
2023/10/11 09:24:45;;;;;;;;;;;19.70;99.90;;;;;;5110364;28;20183;-71
2023/10/11 09:27:19;;;;;;;;;;;19.90;99.90;;;;;;5116227;28;19951;-73
2023/10/11 09:29:47;;;;;;;;;;;20.10;99.90;;;;;;5113248;28;19928;-74
2023/10/11 09:32:19;;;;;;;;;;;20.20;99.90;;;;;;5109525;28;20024;-73
2023/10/11 09:34:47;;;;;;;;;;;20.30;99.90;;;;;;5113556;28;19920;-74
2023/10/11 09:37:14;;;;;;;;;;;20.50;99.90;;;;;;5108337;28;19919;-73
2023/10/11 09:39:41;;;;;;;;;;;20.70;99.90;;;;;;5111076;28;19927;-75
2023/10/11 09:42:11;;;;;;;;;;;20.80;99.90;;;;;;5117834;28;19951;-73
2023/10/11 09:44:40;;;;;;;;;;;21.10;99.90;;;;;;5108821;28;19959;-71
2023/10/11 09:47:31;;;;;;;;;;;21.20;99.90;;;;;;5106710;28;19920;-75
2023/10/11 09:50:00;;;;;;;;;;;21.30;99.90;;;;;;5099775;28;20121;-74
2023/10/11 09:55:31;;;;;;;;;;;21.60;99.90;;;;;;5084812;28;20214;-73
2023/10/11 09:58:03;;;;;;;;;;;21.70;99.90;;;;;;5108629;28;19924;-77
2023/10/11 10:00:37;;;;;;;;;;;21.80;99.90;;;;;;5113863;28;19958;-74
2023/10/11 10:03:05;;;;;;;;;;;22.00;99.90;;;;;;5111642;28;20285;-74
2023/10/11 10:05:46;;;;;;;;;;;22.10;99.90;;;;;;5109989;28;20109;-72
2023/10/11 10:08:17;;;;;;;;;;;22.20;99.90;;;;;;5109714;28;20245;-73
2023/10/11 10:11:03;;;;;;;;;;;22.30;99.90;;;;;;5115744;28;19962;-73
2023/10/11 10:13:30;;;;;;;;;;;22.40;99.90;;;;;;5110060;28;19927;-73
2023/10/11 10:15:57;;;;;;;;;;;22.50;99.90;;;;;;5109358;28;19928;-72
2023/10/11 10:18:25;;;;;;;;;;;22.60;99.90;;;;;;5110136;28;19998;-74
2023/10/11 10:23:55;;;;;;;;;;;22.90;99.90;;;;;;5057874;28;19929;-72
2023/10/11 10:26:30;;;;;;;;;;;23.00;99.90;;;;;;5109984;28;20186;-74
2023/10/11 10:28:57;;;;;;;;;;;23.20;99.90;;;;;;5104187;28;19916;-72
2023/10/11 10:31:25;;;;;;;;;;;23.20;99.90;;;;;;5109282;28;19934;-74
2023/10/11 10:34:06;;;;;;;;;;;23.40;99.90;;;;;;5105870;28;19942;-74
2023/10/11 10:36:37;;;;;;;;;;;23.50;99.90;;;;;;5102345;28;19920;-73
2023/10/11 10:42:12;;;;;;;;;;;23.70;99.90;;;;;;5108060;28;19920;-71
2023/10/11 10:44:49;;;;;;;;;;;23.80;99.90;;;;;;5109705;28;19999;-73
2023/10/11 10:47:21;;;;;;;;;;;23.90;99.90;;;;;;5109523;28;19916;-73
2023/10/11 10:49:50;;;;;;;;;;;24.00;99.90;;;;;;5120086;28;19970;-73
2023/10/11 10:52:29;;;;;;;;;;;24.10;99.90;;;;;;5106277;28;19924;-74
2023/10/11 10:55:07;;;;;;;;;;;24.20;99.90;;;;;;5108999;28;19985;-75
2023/10/11 10:58:00;;;;;;;;;;;24.30;99.90;;;;;;5112890;28;19920;-74
2023/10/11 11:00:30;;;;;;;;;;;24.30;99.90;;;;;;5100433;28;19934;-75
2023/10/11 11:02:57;;;;;;;;;;;24.40;99.90;;;;;;5108951;28;19916;-74
2023/10/11 11:05:25;;;;;;;;;;;24.40;99.90;;;;;;5111436;28;19920;-73
2023/10/11 11:07:52;;;;;;;;;;;24.50;99.90;;;;;;5108072;28;19916;-73
2023/10/11 11:10:20;;;;;;;;;;;24.60;99.90;;;;;;5109350;28;20156;-73
2023/10/11 11:13:02;;;;;;;;;;;24.60;99.90;;;;;;5111775;28;19952;-75
2023/10/11 11:15:34;;;;;;;;;;;24.80;99.90;;;;;;5111274;28;19943;-73
2023/10/11 11:18:02;;;;;;;;;;;24.90;99.90;;;;;;5111081;28;19916;-73
2023/10/11 11:20:29;;;;;;;;;;;25.00;99.90;;;;;;5116898;28;20217;-73
2023/10/11 11:22:56;;;;;;;;;;;25.10;99.90;;;;;;5114377;28;19916;-72
2023/10/11 11:25:27;;;;;;;;;;;25.20;99.90;;;;;;5107710;28;19952;-73
2023/10/11 11:28:08;;;;;;;;;;;25.30;99.90;;;;;;5101230;28;19920;-73
2023/10/11 11:30:33;;;;;;;;;;;25.40;99.90;;;;;;5104925;28;20005;-71
2023/10/11 11:33:01;;;;;;;;;;;25.50;99.90;;;;;;5104368;28;19928;-72
2023/10/11 11:35:47;;;;;;;;;;;25.40;99.90;;;;;;5103482;28;20114;-74
2023/10/11 11:38:20;;;;;;;;;;;25.40;99.90;;;;;;5104480;28;19919;-73
2023/10/11 11:40:51;;;;;;;;;;;25.40;99.90;;;;;;5105892;28;19923;-72
2023/10/11 11:43:17;;;;;;;;;;;25.40;99.90;;;;;;5106798;28;20145;-72
2023/10/11 11:45:45;;;;;;;;;;;25.40;99.90;;;;;;5107589;28;19986;-73
2023/10/11 11:48:11;;;;;;;;;;;25.50;99.90;;;;;;5108211;28;20014;-72
2023/10/11 11:50:39;;;;;;;;;;;25.60;99.90;;;;;;5109298;28;20095;-72
2023/10/11 11:53:04;;;;;;;;;;;25.60;99.90;;;;;;5109469;28;20575;-72
2023/10/11 11:55:31;;;;;;;;;;;25.90;99.90;;;;;;5107684;28;19996;-72
2023/10/11 11:57:58;;;;;;;;;;;26.00;99.90;;;;;;5109541;28;19919;-72
2023/10/11 12:00:45;;;;;;;;;;;26.00;99.90;;;;;;5107798;28;19920;-73
2023/10/11 12:03:11;;;;;;;;;;;26.00;99.90;;;;;;5103106;28;19950;-72
2023/10/11 12:05:40;;;;;;;;;;;26.10;99.90;;;;;;5103739;28;20454;-72
2023/10/11 12:08:08;;;;;;;;;;;26.20;99.90;;;;;;5103882;28;19966;-71
2023/10/11 12:10:36;;;;;;;;;;;26.30;99.90;;;;;;5104190;28;19926;-71
2023/10/11 12:13:07;;;;;;;;;;;26.30;99.90;;;;;;5107963;28;19955;-72
2023/10/11 12:15:35;;;;;;;;;;;26.40;99.90;;;;;;5107565;28;20251;-73
2023/10/11 12:18:05;;;;;;;;;;;26.50;99.90;;;;;;5109774;28;19942;-71
2023/10/11 12:20:34;;;;;;;;;;;26.50;99.90;;;;;;5106739;28;19965;-73
2023/10/11 12:23:07;;;;;;;;;;;26.40;99.90;;;;;;5110209;28;19927;-72
2023/10/11 12:25:35;;;;;;;;;;;26.30;99.90;;;;;;5106237;28;20300;-71
2023/10/11 12:28:05;;;;;;;;;;;26.30;99.90;;;;;;5106563;28;19920;-74
2023/10/11 12:30:35;;;;;;;;;;;26.30;99.90;;;;;;5104658;28;19920;-71
2023/10/11 12:33:06;;;;;;;;;;;26.40;99.90;;;;;;5110371;28;19964;-73
2023/10/11 12:35:34;;;;;;;;;;;26.50;99.90;;;;;;5104320;28;19920;-72
2023/10/11 12:38:01;;;;;;;;;;;26.60;99.90;;;;;;5105378;28;20172;-72
2023/10/11 12:40:28;;;;;;;;;;;26.60;99.90;;;;;;5107603;28;19928;-73
2023/10/11 12:42:55;;;;;;;;;;;26.70;99.90;;;;;;5111273;28;20157;-73
2023/10/11 12:45:23;;;;;;;;;;;26.80;99.90;;;;;;5105083;28;19926;-73
2023/10/11 12:47:50;;;;;;;;;;;26.90;99.90;;;;;;5106967;28;19951;-72
2023/10/11 12:50:18;;;;;;;;;;;26.90;99.90;;;;;;5115046;28;19966;-73
2023/10/11 12:52:45;;;;;;;;;;;27.00;99.90;;;;;;5111577;28;19987;-73
2023/10/11 12:55:12;;;;;;;;;;;27.10;99.90;;;;;;5103771;28;19928;-73
2023/10/11 12:57:54;;;;;;;;;;;26.90;99.90;;;;;;5103203;28;19943;-76
2023/10/11 13:05:52;;;;;;;;;;;26.90;99.90;;;;;;5099467;28;19934;-73
2023/10/11 13:08:24;;;;;;;;;;;27.10;99.90;;;;;;5104105;28;19927;-73
2023/10/11 13:10:51;;;;;;;;;;;27.20;99.90;;;;;;5107510;28;19919;-72
2023/10/11 13:16:26;;;;;;;;;;;27.40;99.90;;;;;;5096193;28;20516;-72
2023/10/11 13:18:56;;;;;;;;;;;27.40;99.90;;;;;;5103568;28;19920;-73
2023/10/11 13:21:26;;;;;;;;;;;27.30;99.90;;;;;;5102442;28;20148;-72
2023/10/11 13:23:53;;;;;;;;;;;27.30;99.90;;;;;;5106833;28;19951;-72
2023/10/11 13:26:20;;;;;;;;;;;27.30;99.90;;;;;;5105766;28;19999;-73
2023/10/11 13:28:48;;;;;;;;;;;27.40;99.90;;;;;;5106024;28;19955;-71
2023/10/11 13:31:17;;;;;;;;;;;27.30;99.90;;;;;;5105756;28;19947;-73
2023/10/11 13:33:43;;;;;;;;;;;27.20;99.90;;;;;;5110183;28;19991;-72
2023/10/11 13:36:12;;;;;;;;;;;27.20;99.90;;;;;;5105804;28;19962;-71
2023/10/11 13:38:44;;;;;;;;;;;27.20;99.90;;;;;;5101286;28;19927;-73
2023/10/11 13:41:12;;;;;;;;;;;27.20;99.90;;;;;;5106951;28;19958;-72
2023/10/11 13:43:38;;;;;;;;;;;27.40;99.90;;;;;;5108082;28;19983;-72
2023/10/11 13:46:07;;;;;;;;;;;27.50;99.90;;;;;;5107422;28;19955;-72
2023/10/11 13:48:37;;;;;;;;;;;27.60;99.90;;;;;;5106508;28;19951;-72
2023/10/11 13:51:06;;;;;;;;;;;27.70;99.90;;;;;;5107096;28;19920;-72
2023/10/11 13:53:41;;;;;;;;;;;27.80;99.80;;;;;;5107477;28;19975;-72
2023/10/11 13:56:11;;;;;;;;;;;27.80;99.60;;;;;;5107185;28;19969;-74
2023/10/11 13:58:38;;;;;;;;;;;27.70;99.40;;;;;;5106398;28;19940;-72
2023/10/11 14:01:24;;;;;;;;;;;27.70;99.90;;;;;;5104289;28;20512;-72
2023/10/11 14:03:53;;;;;;;;;;;27.70;99.30;;;;;;5102975;28;19922;-72
2023/10/11 14:06:30;;;;;;;;;;;27.60;99.60;;;;;;5110223;28;19993;-73
2023/10/11 14:09:02;;;;;;;;;;;27.60;98.90;;;;;;5102027;28;19916;-72
2023/10/11 14:11:30;;;;;;;;;;;27.50;99.40;;;;;;5100666;28;19920;-72
2023/10/11 14:13:56;;;;;;;;;;;27.50;99.10;;;;;;5106594;28;20022;-72
2023/10/11 14:16:27;;;;;;;;;;;27.40;98.80;;;;;;5104078;28;19966;-72
2023/10/11 14:18:55;;;;;;;;;;;27.20;98.40;;;;;;5097598;28;19979;-74
2023/10/11 14:21:23;;;;;;;;;;;27.10;99.00;;;;;;5104100;28;19996;-73
2023/10/11 14:23:51;;;;;;;;;;;27.00;98.80;;;;;;5103029;28;20160;-73
2023/10/11 14:26:22;;;;;;;;;;;27.00;99.20;;;;;;5102105;28;19974;-73
2023/10/11 14:28:49;;;;;;;;;;;26.90;98.60;;;;;;5108907;28;19955;-73
2023/10/11 14:31:18;;;;;;;;;;;26.70;98.90;;;;;;5105553;28;19947;-73
2023/10/11 14:33:47;;;;;;;;;;;26.60;99.00;;;;;;5103757;28;19920;-72
2023/10/11 14:36:14;;;;;;;;;;;26.40;99.00;;;;;;5105922;28;19920;-72
2023/10/11 14:38:41;;;;;;;;;;;26.30;99.20;;;;;;5105752;28;19920;-72
2023/10/11 14:41:08;;;;;;;;;;;26.30;99.40;;;;;;5104542;28;19991;-73
2023/10/11 14:43:36;;;;;;;;;;;26.30;99.50;;;;;;5107635;28;19989;-73
2023/10/11 14:46:06;;;;;;;;;;;26.40;99.70;;;;;;5110068;28;19936;-75
2023/10/11 14:48:33;;;;;;;;;;;26.40;99.80;;;;;;5109699;28;20184;-73
2023/10/11 14:51:13;;;;;;;;;;;26.50;99.90;;;;;;5114169;28;19974;-75
2023/10/11 14:53:40;;;;;;;;;;;26.60;99.90;;;;;;5112555;28;20125;-74
2023/10/11 14:57:06;;;;;;;;;;;26.60;99.90;;;;;;5107352;28;19952;-76
2023/10/11 14:59:35;;;;;;;;;;;26.60;99.90;;;;;;5094046;28;19942;-73
2023/10/11 15:02:01;;;;;;;;;;;26.60;99.90;;;;;;5111648;28;20209;-73
2023/10/11 15:04:28;;;;;;;;;;;26.60;99.90;;;;;;5109328;28;19962;-74
2023/10/11 15:06:56;;;;;;;;;;;26.60;99.70;;;;;;5111121;28;20112;-74
2023/10/11 15:09:23;;;;;;;;;;;26.60;99.90;;;;;;5108058;28;19928;-74
2023/10/11 15:11:50;;;;;;;;;;;26.40;99.80;;;;;;5109629;28;19981;-74
2023/10/11 15:14:17;;;;;;;;;;;26.30;99.80;;;;;;5113989;28;20259;-74
2023/10/11 15:16:46;;;;;;;;;;;26.20;99.50;;;;;;5108808;28;19928;-74
2023/10/11 15:19:13;;;;;;;;;;;26.10;99.70;;;;;;5109484;28;19970;-73
2023/10/11 15:21:40;;;;;;;;;;;26.00;99.60;;;;;;5111711;28;20277;-73
2023/10/11 15:24:07;;;;;;;;;;;25.70;99.70;;;;;;5110894;28;19920;-73
2023/10/11 15:26:34;;;;;;;;;;;25.50;99.90;;;;;;5104370;28;20160;-74
2023/10/11 15:29:02;;;;;;;;;;;25.30;99.80;;;;;;5106492;28;19927;-74
2023/10/11 15:31:30;;;;;;;;;;;25.10;99.90;;;;;;5106655;28;19920;-74
2023/10/11 15:33:59;;;;;;;;;;;25.00;99.90;;;;;;5105952;28;19990;-74
2023/10/11 15:36:28;;;;;;;;;;;24.80;99.90;;;;;;5106384;28;19920;-74